aviador You're here:

SAZN Decoded Metar

NEUQUEN in ARGENTINA
Report Time2018-06-25 01:00:00
UTC Time2018-06-25 02:04:22
Flight Rules vfr VFR
Wind270° at 10 kt
W.Decomp.*RWY 27: 10.0 kt HW 0.7 kt LCW
W.Rank270° ranks 2
Current wind is above 270° avg. (5.9)
Visibility9999 m
Phenomena:N/A
Clouds:N/A
Expected CloudBase > 3,200 ft AGL from Temp-Dew spread
CeilingNone
Temp05°C (ISA -8)
Dew Point-3°C (57% RH)
AAT-1.0°C
QNH1014 hPa
Density Alt-66 ft
Elevation889 ft
Report Wrong Elevation
Raw Report
METAR SAZN 250100Z 27010KT CAVOK 05/M03 Q1014=

Extra information for SAZN:More info

Metar Taf Metar & Taf Last 4 Metars F.Rules Stats Wind Profile Meteogram Temp Stats Airport Information Weather charts Add Link Nearby VenuesMetar ALERT Operation Metar Decoded Social comments